Time;durP1;ratioP1;P1;durP2;ratioP2;P2;SDS_P1;SDS_P2;PMS_P1;PMS_P2;Temp;Humidity;BMP_temperature;BMP_pressure;BME280_temperature;BME280_humidity;BME280_pressure;Samples;Min_cycle;Max_cycle;Signal;HPM_P1;HPM_P2
2023/05/25 00:02:08;;;;;;;13.65;4.95;;;;;;;;;;5054556;28;20021;-77
2023/05/25 00:04:35;;;;;;;10.88;4.75;;;;;;;;;;5061943;28;20033;-77
2023/05/25 00:07:01;;;;;;;13.93;5.28;;;;;;;;;;5062854;28;20036;-77
2023/05/25 00:09:27;;;;;;;12.25;5.05;;;;;;;;;;5063401;28;20567;-76
2023/05/25 00:11:53;;;;;;;10.23;4.00;;;;;;;;;;5066227;28;20025;-75
2023/05/25 00:14:20;;;;;;;12.65;5.00;;;;;;;;;;5063190;28;20032;-77
2023/05/25 00:16:47;;;;;;;15.10;5.43;;;;;;;;;;5047484;28;20027;-76
2023/05/25 00:19:14;;;;;;;14.10;5.45;;;;;;;;;;5067211;28;20067;-77
2023/05/25 00:21:41;;;;;;;16.63;5.55;;;;;;;;;;5057830;28;20021;-76
2023/05/25 00:24:07;;;;;;;9.25;4.18;;;;;;;;;;5071361;28;20154;-77
2023/05/25 00:26:36;;;;;;;11.90;5.40;;;;;;;;;;5050125;28;20029;-77
2023/05/25 00:29:06;;;;;;;11.07;4.03;;;;;;;;;;5051654;28;20121;-78
2023/05/25 00:31:34;;;;;;;11.90;4.97;;;;;;;;;;5063964;28;20044;-78
2023/05/25 00:34:00;;;;;;;12.10;6.10;;;;;;;;;;5065232;28;20486;-77
2023/05/25 00:36:26;;;;;;;9.50;5.22;;;;;;;;;;5052592;28;20020;-77
2023/05/25 00:38:52;;;;;;;16.70;6.20;;;;;;;;;;5068836;28;20442;-76
2023/05/25 00:41:18;;;;;;;12.23;5.10;;;;;;;;;;5049554;28;20163;-77
2023/05/25 00:43:46;;;;;;;14.38;5.97;;;;;;;;;;5055983;28;20032;-76
2023/05/25 00:46:13;;;;;;;18.17;5.57;;;;;;;;;;5068003;28;20523;-77
2023/05/25 00:48:40;;;;;;;7.80;4.18;;;;;;;;;;5060045;28;20061;-78
2023/05/25 00:51:07;;;;;;;13.15;5.43;;;;;;;;;;5060159;28;20032;-76
2023/05/25 00:53:33;;;;;;;11.13;5.63;;;;;;;;;;5056873;28;20035;-76
2023/05/25 00:56:04;;;;;;;14.35;5.93;;;;;;;;;;5068824;28;20055;-77
2023/05/25 00:58:33;;;;;;;15.65;5.72;;;;;;;;;;5068432;28;20079;-78
2023/05/25 01:00:59;;;;;;;13.30;5.20;;;;;;;;;;5058237;28;20376;-76
2023/05/25 01:03:28;;;;;;;11.30;5.18;;;;;;;;;;5061777;28;20024;-77
2023/05/25 01:05:56;;;;;;;13.13;5.95;;;;;;;;;;5069666;28;20021;-76
2023/05/25 01:08:22;;;;;;;13.27;5.53;;;;;;;;;;5069447;28;20028;-76
2023/05/25 01:10:49;;;;;;;13.73;5.30;;;;;;;;;;5055778;28;20043;-75
2023/05/25 01:13:17;;;;;;;10.93;5.07;;;;;;;;;;5063100;28;20021;-76
2023/05/25 01:15:44;;;;;;;12.15;5.55;;;;;;;;;;5061937;28;20043;-77
2023/05/25 01:18:13;;;;;;;9.98;5.32;;;;;;;;;;5063199;28;20056;-76
2023/05/25 01:20:52;;;;;;;9.15;4.63;;;;;;;;;;5068524;28;20083;-75
2023/05/25 01:23:20;;;;;;;15.27;5.70;;;;;;;;;;5069331;28;20047;-76
2023/05/25 01:25:51;;;;;;;16.30;5.60;;;;;;;;;;5069559;28;20033;-77
2023/05/25 01:28:18;;;;;;;14.20;4.28;;;;;;;;;;5059885;28;20082;-76
2023/05/25 01:30:45;;;;;;;13.35;5.85;;;;;;;;;;5070260;28;20032;-76
2023/05/25 01:33:12;;;;;;;10.75;5.15;;;;;;;;;;5055918;28;20498;-76
2023/05/25 01:35:39;;;;;;;13.75;5.07;;;;;;;;;;5063473;28;20112;-76
2023/05/25 01:38:07;;;;;;;12.40;5.22;;;;;;;;;;5051412;28;20025;-77
2023/05/25 01:40:33;;;;;;;12.13;5.22;;;;;;;;;;5048658;28;20043;-76
2023/05/25 01:42:59;;;;;;;12.52;5.68;;;;;;;;;;5051592;28;20432;-77
2023/05/25 01:45:25;;;;;;;9.88;5.88;;;;;;;;;;5058588;28;20094;-76
2023/05/25 01:47:51;;;;;;;16.98;6.30;;;;;;;;;;5046203;28;20088;-75
2023/05/25 01:50:23;;;;;;;17.38;5.88;;;;;;;;;;5059399;28;20435;-75
2023/05/25 01:53:09;;;;;;;13.60;5.88;;;;;;;;;;5050679;28;20021;-74
2023/05/25 01:55:39;;;;;;;15.18;5.90;;;;;;;;;;5050509;28;20024;-76
2023/05/25 01:58:06;;;;;;;14.88;6.20;;;;;;;;;;5064638;28;20407;-77
2023/05/25 02:00:32;;;;;;;13.02;5.93;;;;;;;;;;5056584;28;20436;-76
2023/05/25 02:03:02;;;;;;;13.50;6.07;;;;;;;;;;5046436;28;20738;-77
2023/05/25 02:05:28;;;;;;;20.73;7.10;;;;;;;;;;5061726;28;20036;-77
2023/05/25 02:07:54;;;;;;;18.30;7.05;;;;;;;;;;5061223;28;20059;-76
2023/05/25 02:10:20;;;;;;;13.13;5.22;;;;;;;;;;5065546;28;20106;-75
2023/05/25 02:12:46;;;;;;;16.13;6.68;;;;;;;;;;5066114;28;20039;-75
2023/05/25 02:15:12;;;;;;;14.38;7.10;;;;;;;;;;5032608;28;20025;-75
2023/05/25 02:17:38;;;;;;;11.35;5.82;;;;;;;;;;5050498;28;20033;-75
2023/05/25 02:20:05;;;;;;;12.35;5.25;;;;;;;;;;5067519;28;20441;-76
2023/05/25 02:22:32;;;;;;;14.55;6.97;;;;;;;;;;5059546;28;20116;-75
2023/05/25 02:24:58;;;;;;;14.70;6.18;;;;;;;;;;5059949;28;20085;-77
2023/05/25 02:27:25;;;;;;;14.93;6.18;;;;;;;;;;5031349;28;20025;-76
2023/05/25 02:29:52;;;;;;;13.88;6.57;;;;;;;;;;5045837;28;20589;-74
2023/05/25 02:32:18;;;;;;;16.80;6.47;;;;;;;;;;5063677;28;20107;-76
2023/05/25 02:34:46;;;;;;;15.77;6.20;;;;;;;;;;5054751;28;20101;-75
2023/05/25 02:37:12;;;;;;;15.30;7.22;;;;;;;;;;5063077;28;20052;-76
2023/05/25 02:39:38;;;;;;;16.48;7.68;;;;;;;;;;5064178;28;20032;-75
2023/05/25 02:42:05;;;;;;;15.73;6.93;;;;;;;;;;5059112;28;20045;-75
2023/05/25 02:44:31;;;;;;;18.55;6.72;;;;;;;;;;5060422;28;20029;-75
2023/05/25 02:46:57;;;;;;;20.13;7.07;;;;;;;;;;5048007;28;20094;-77
2023/05/25 02:49:23;;;;;;;14.57;5.80;;;;;;;;;;5053251;28;20037;-75
2023/05/25 02:51:49;;;;;;;14.93;6.28;;;;;;;;;;5048000;28;20391;-75
2023/05/25 02:54:16;;;;;;;14.10;5.47;;;;;;;;;;5048205;28;20029;-75
2023/05/25 02:56:42;;;;;;;17.15;5.80;;;;;;;;;;5057457;28;20024;-76
2023/05/25 02:59:08;;;;;;;14.82;6.15;;;;;;;;;;5060638;28;20340;-76
2023/05/25 03:01:34;;;;;;;16.83;7.60;;;;;;;;;;5040248;28;20380;-76
2023/05/25 03:04:00;;;;;;;14.10;7.07;;;;;;;;;;5063716;28;20067;-75
2023/05/25 03:06:26;;;;;;;13.40;6.85;;;;;;;;;;5068217;28;20036;-76
2023/05/25 03:08:53;;;;;;;15.38;6.68;;;;;;;;;;5055624;28;20035;-76
2023/05/25 03:11:19;;;;;;;16.90;6.28;;;;;;;;;;5054538;28;20020;-75
2023/05/25 03:13:45;;;;;;;15.55;7.38;;;;;;;;;;5050258;28;20124;-76
2023/05/25 03:16:11;;;;;;;17.23;7.63;;;;;;;;;;5062665;28;20042;-75
2023/05/25 03:18:38;;;;;;;17.20;7.75;;;;;;;;;;5051778;28;20074;-76
2023/05/25 03:21:04;;;;;;;13.30;6.05;;;;;;;;;;5059577;28;20036;-76
2023/05/25 03:23:30;;;;;;;20.48;8.40;;;;;;;;;;5067142;28;20036;-76
2023/05/25 03:25:56;;;;;;;15.88;6.65;;;;;;;;;;5071916;28;20047;-77
2023/05/25 03:28:28;;;;;;;19.15;7.93;;;;;;;;;;5070918;28;20506;-77
2023/05/25 03:30:55;;;;;;;21.65;6.68;;;;;;;;;;5061082;28;20024;-75
2023/05/25 03:33:21;;;;;;;16.92;7.70;;;;;;;;;;5069255;28;20025;-77
2023/05/25 03:35:47;;;;;;;17.60;7.43;;;;;;;;;;5053926;28;20025;-77
2023/05/25 03:38:13;;;;;;;17.05;7.25;;;;;;;;;;5057711;28;20029;-76
2023/05/25 03:40:39;;;;;;;17.38;8.18;;;;;;;;;;5062828;28;20025;-75
2023/05/25 03:43:06;;;;;;;14.35;7.15;;;;;;;;;;5051459;28;20033;-76
2023/05/25 03:45:32;;;;;;;19.90;9.02;;;;;;;;;;5069101;28;20172;-75
2023/05/25 03:47:58;;;;;;;14.52;6.93;;;;;;;;;;5060165;28;20028;-75
2023/05/25 03:50:24;;;;;;;16.08;6.97;;;;;;;;;;5051162;28;20033;-76
2023/05/25 03:52:50;;;;;;;19.80;7.03;;;;;;;;;;5060538;28;20052;-76
2023/05/25 03:55:16;;;;;;;21.35;8.02;;;;;;;;;;5051684;28;20479;-76
2023/05/25 03:57:42;;;;;;;17.13;7.47;;;;;;;;;;5051666;28;20112;-75
2023/05/25 04:00:09;;;;;;;17.70;6.97;;;;;;;;;;5068420;28;20036;-77
2023/05/25 04:02:35;;;;;;;18.60;8.80;;;;;;;;;;5048512;28;20526;-76
2023/05/25 04:05:01;;;;;;;19.35;8.77;;;;;;;;;;5071441;28;20110;-76
2023/05/25 04:07:29;;;;;;;18.73;8.75;;;;;;;;;;5060924;28;20501;-75
2023/05/25 04:09:59;;;;;;;19.73;7.72;;;;;;;;;;5070029;28;20067;-75
2023/05/25 04:12:25;;;;;;;16.92;8.63;;;;;;;;;;5071728;28;20112;-76
2023/05/25 04:14:51;;;;;;;20.98;9.27;;;;;;;;;;5069353;28;20090;-76
2023/05/25 04:17:20;;;;;;;19.55;9.02;;;;;;;;;;5059810;28;20494;-76
2023/05/25 04:19:46;;;;;;;16.90;8.27;;;;;;;;;;5064873;28;20503;-76
2023/05/25 04:22:13;;;;;;;24.08;8.70;;;;;;;;;;5071269;28;20112;-78
2023/05/25 04:24:39;;;;;;;25.40;8.98;;;;;;;;;;5065441;28;20028;-75
2023/05/25 04:27:05;;;;;;;18.83;8.52;;;;;;;;;;5069080;28;20025;-76
2023/05/25 04:29:32;;;;;;;22.75;9.00;;;;;;;;;;5068207;28;20032;-75
2023/05/25 04:31:58;;;;;;;16.05;7.80;;;;;;;;;;5050718;28;20029;-76
2023/05/25 04:34:24;;;;;;;18.88;7.28;;;;;;;;;;5051997;28;20033;-76
2023/05/25 04:36:50;;;;;;;15.52;7.78;;;;;;;;;;5051597;28;20044;-76
2023/05/25 04:39:16;;;;;;;15.18;6.88;;;;;;;;;;5062976;28;20033;-76
2023/05/25 04:41:43;;;;;;;21.35;7.53;;;;;;;;;;5063900;28;20037;-76
2023/05/25 04:44:08;;;;;;;12.52;7.20;;;;;;;;;;5050871;28;20486;-76
2023/05/25 04:46:36;;;;;;;20.65;8.38;;;;;;;;;;5051053;28;20031;-76
2023/05/25 04:49:04;;;;;;;17.02;5.95;;;;;;;;;;5049816;28;20096;-76
2023/05/25 04:51:31;;;;;;;18.95;7.95;;;;;;;;;;5069276;28;20040;-76
2023/05/25 04:53:57;;;;;;;16.70;7.13;;;;;;;;;;5069915;28;20032;-76
2023/05/25 04:56:25;;;;;;;17.35;7.53;;;;;;;;;;5045033;28;20029;-77
2023/05/25 04:58:51;;;;;;;18.35;7.07;;;;;;;;;;5063343;28;20106;-75
2023/05/25 05:01:19;;;;;;;12.65;6.38;;;;;;;;;;5051448;28;20514;-76
2023/05/25 05:03:45;;;;;;;13.77;5.80;;;;;;;;;;5052014;28;20017;-75
2023/05/25 05:06:11;;;;;;;11.73;5.60;;;;;;;;;;5055750;28;20039;-76
2023/05/25 05:08:37;;;;;;;16.58;7.78;;;;;;;;;;5067588;28;20111;-77
2023/05/25 05:11:03;;;;;;;16.05;7.40;;;;;;;;;;5063621;28;20032;-76
2023/05/25 05:13:29;;;;;;;19.20;7.00;;;;;;;;;;5069742;28;20029;-76
2023/05/25 05:15:56;;;;;;;14.38;6.53;;;;;;;;;;5051191;28;20021;-75
2023/05/25 05:18:22;;;;;;;14.57;6.70;;;;;;;;;;5050161;28;20048;-76
2023/05/25 05:20:48;;;;;;;16.27;6.35;;;;;;;;;;5049985;28;20041;-76
2023/05/25 05:23:14;;;;;;;13.80;6.82;;;;;;;;;;5068043;28;20028;-76
2023/05/25 05:25:40;;;;;;;14.90;6.03;;;;;;;;;;5061844;28;20028;-75
2023/05/25 05:28:06;;;;;;;16.23;6.80;;;;;;;;;;5062218;28;20097;-74
2023/05/25 05:30:33;;;;;;;15.40;6.82;;;;;;;;;;5063022;28;20033;-75
2023/05/25 05:32:59;;;;;;;15.27;7.22;;;;;;;;;;5069475;28;20021;-76
2023/05/25 05:35:25;;;;;;;15.48;6.88;;;;;;;;;;5059310;28;20021;-76
2023/05/25 05:37:51;;;;;;;15.75;8.15;;;;;;;;;;5049602;28;20064;-76
2023/05/25 05:40:17;;;;;;;18.50;8.05;;;;;;;;;;5067504;28;20044;-76
2023/05/25 05:42:43;;;;;;;22.23;8.60;;;;;;;;;;5038665;28;20029;-76
2023/05/25 05:45:09;;;;;;;13.90;6.95;;;;;;;;;;5060521;28;20099;-74
2023/05/25 05:47:36;;;;;;;14.68;6.72;;;;;;;;;;5048120;28;20036;-75
2023/05/25 05:50:02;;;;;;;20.13;7.78;;;;;;;;;;5057058;28;20436;-74
2023/05/25 05:52:28;;;;;;;13.65;5.45;;;;;;;;;;5058839;28;20052;-75
2023/05/25 05:54:54;;;;;;;15.40;5.78;;;;;;;;;;5058399;28;20078;-74
2023/05/25 05:57:20;;;;;;;17.75;5.28;;;;;;;;;;5060324;28;20402;-75
2023/05/25 05:59:47;;;;;;;15.18;5.88;;;;;;;;;;5057382;28;20037;-73
2023/05/25 06:02:14;;;;;;;17.13;6.22;;;;;;;;;;5058825;28;20440;-74
2023/05/25 06:04:41;;;;;;;17.63;8.02;;;;;;;;;;5059892;28;20136;-74
2023/05/25 06:07:07;;;;;;;14.70;5.95;;;;;;;;;;5054119;28;20099;-75
2023/05/25 06:09:33;;;;;;;19.70;7.72;;;;;;;;;;5061792;28;20110;-74
2023/05/25 06:12:00;;;;;;;13.20;5.18;;;;;;;;;;5062227;28;20082;-74
2023/05/25 06:14:27;;;;;;;8.35;4.57;;;;;;;;;;5068825;28;20035;-73
2023/05/25 06:16:53;;;;;;;18.23;7.57;;;;;;;;;;5067815;28;20498;-74
2023/05/25 06:19:19;;;;;;;15.75;6.90;;;;;;;;;;5067703;28;20025;-74
2023/05/25 06:21:45;;;;;;;12.75;5.53;;;;;;;;;;5067687;28;20072;-74
2023/05/25 06:24:11;;;;;;;15.50;6.88;;;;;;;;;;5036790;28;20494;-72
2023/05/25 06:26:37;;;;;;;17.88;5.68;;;;;;;;;;5067179;28;20382;-73
2023/05/25 06:29:03;;;;;;;12.48;4.78;;;;;;;;;;5055015;28;20109;-72
2023/05/25 06:31:29;;;;;;;10.13;3.85;;;;;;;;;;5048982;28;20028;-73
2023/05/25 06:33:55;;;;;;;14.27;3.80;;;;;;;;;;5068164;28;20033;-73
2023/05/25 06:36:22;;;;;;;16.95;4.57;;;;;;;;;;5068494;28;20016;-72
2023/05/25 06:38:48;;;;;;;12.45;4.72;;;;;;;;;;5054505;28;20081;-71
2023/05/25 06:41:15;;;;;;;12.13;4.72;;;;;;;;;;5063800;28;20032;-71
2023/05/25 06:43:44;;;;;;;15.50;5.22;;;;;;;;;;5049453;28;20029;-72
2023/05/25 06:46:12;;;;;;;11.55;4.57;;;;;;;;;;5051426;28;20029;-71
2023/05/25 06:48:38;;;;;;;11.70;4.93;;;;;;;;;;5053979;28;20025;-72
2023/05/25 06:51:05;;;;;;;11.07;4.35;;;;;;;;;;5064023;28;20368;-71
2023/05/25 06:53:31;;;;;;;12.68;4.35;;;;;;;;;;5058252;28;20070;-72
2023/05/25 06:55:57;;;;;;;14.50;4.50;;;;;;;;;;5061341;28;20058;-71
2023/05/25 06:58:23;;;;;;;12.30;4.35;;;;;;;;;;5063370;28;20048;-72
2023/05/25 07:00:49;;;;;;;11.27;3.85;;;;;;;;;;5061517;28;20134;-71
2023/05/25 07:03:15;;;;;;;10.63;4.22;;;;;;;;;;5063059;28;20028;-71
2023/05/25 07:05:41;;;;;;;9.63;3.35;;;;;;;;;;5062753;28;20092;-72
2023/05/25 07:08:07;;;;;;;10.30;3.58;;;;;;;;;;5060205;28;20119;-71
2023/05/25 07:10:33;;;;;;;9.57;3.67;;;;;;;;;;5063725;28;20067;-72
2023/05/25 07:12:59;;;;;;;10.55;3.03;;;;;;;;;;5060171;28;20056;-71
2023/05/25 07:15:25;;;;;;;8.85;3.10;;;;;;;;;;5061753;28;20429;-72
2023/05/25 07:17:51;;;;;;;7.90;3.00;;;;;;;;;;5064151;28;20078;-72
2023/05/25 07:20:17;;;;;;;7.35;3.05;;;;;;;;;;5062773;28;20029;-72
2023/05/25 07:22:46;;;;;;;9.80;3.65;;;;;;;;;;5054290;28;20059;-71
2023/05/25 07:25:12;;;;;;;9.50;2.88;;;;;;;;;;5059221;28;20021;-72
2023/05/25 07:27:38;;;;;;;9.57;2.88;;;;;;;;;;5058493;28;20029;-71
2023/05/25 07:30:05;;;;;;;8.65;3.08;;;;;;;;;;5060444;28;20040;-73
2023/05/25 07:32:31;;;;;;;7.43;2.95;;;;;;;;;;5055439;28;20033;-74
2023/05/25 07:34:57;;;;;;;9.18;2.67;;;;;;;;;;5056806;28;20024;-74
2023/05/25 07:37:23;;;;;;;5.25;2.15;;;;;;;;;;5048356;28;20484;-73
2023/05/25 07:39:49;;;;;;;6.65;2.20;;;;;;;;;;5057168;28;20104;-72
2023/05/25 07:42:19;;;;;;;5.70;2.20;;;;;;;;;;5065369;28;20406;-72
2023/05/25 07:44:45;;;;;;;;;;;;;;;;;;5067053;28;20016;-73
2023/05/25 07:47:11;;;;;;;6.95;2.35;;;;;;;;;;5052793;28;19908;-72
2023/05/25 07:49:37;;;;;;;7.90;2.88;;;;;;;;;;5071497;28;20086;-71
2023/05/25 07:52:04;;;;;;;7.18;2.67;;;;;;;;;;5071509;28;20478;-73
2023/05/25 07:54:31;;;;;;;8.38;2.80;;;;;;;;;;5069921;28;20382;-74
2023/05/25 07:56:57;;;;;;;6.13;2.10;;;;;;;;;;5051561;28;20025;-74
2023/05/25 07:59:23;;;;;;;6.57;2.25;;;;;;;;;;5061386;28;20462;-73
2023/05/25 08:01:49;;;;;;;9.20;2.90;;;;;;;;;;5064361;28;20032;-72
2023/05/25 08:04:15;;;;;;;9.27;2.85;;;;;;;;;;5064642;28;20044;-73
2023/05/25 08:06:41;;;;;;;6.50;2.67;;;;;;;;;;5052027;28;20083;-74
2023/05/25 08:09:07;;;;;;;7.53;2.72;;;;;;;;;;5064309;28;20025;-73
2023/05/25 08:11:33;;;;;;;9.43;2.38;;;;;;;;;;5064779;28;20052;-73
2023/05/25 08:13:59;;;;;;;7.55;2.65;;;;;;;;;;5068582;28;20087;-73
2023/05/25 08:16:26;;;;;;;7.63;2.42;;;;;;;;;;5066894;28;20453;-70
2023/05/25 08:18:52;;;;;;;7.88;2.17;;;;;;;;;;5057706;28;20498;-72
2023/05/25 08:21:18;;;;;;;7.75;2.25;;;;;;;;;;5070937;28;20062;-72
2023/05/25 08:23:44;;;;;;;8.95;3.20;;;;;;;;;;5070758;28;20033;-72
2023/05/25 08:26:11;;;;;;;8.30;2.55;;;;;;;;;;5069399;28;20028;-72
2023/05/25 08:28:37;;;;;;;10.13;2.45;;;;;;;;;;5064408;28;20479;-73
2023/05/25 08:31:03;;;;;;;6.03;1.67;;;;;;;;;;5050217;28;20017;-72
2023/05/25 08:33:30;;;;;;;8.93;2.85;;;;;;;;;;5050520;28;20049;-72
2023/05/25 08:35:57;;;;;;;6.55;2.67;;;;;;;;;;5050192;28;20104;-73
2023/05/25 08:38:24;;;;;;;7.90;2.70;;;;;;;;;;5050382;28;20442;-72
2023/05/25 08:41:09;;;;;;;5.70;2.28;;;;;;;;;;5061165;28;20072;-72
2023/05/25 08:43:35;;;;;;;9.48;3.70;;;;;;;;;;5059113;28;20033;-72
2023/05/25 08:46:05;;;;;;;5.43;2.33;;;;;;;;;;5069691;28;20021;-72
2023/05/25 08:48:35;;;;;;;7.15;2.38;;;;;;;;;;5070201;28;20074;-72
2023/05/25 08:51:04;;;;;;;6.78;2.47;;;;;;;;;;5054210;28;20051;-72
2023/05/25 08:53:34;;;;;;;8.95;2.83;;;;;;;;;;5050963;28;20391;-71
2023/05/25 08:56:00;;;;;;;8.43;3.00;;;;;;;;;;5052698;28;20033;-72
2023/05/25 08:58:32;;;;;;;8.25;2.85;;;;;;;;;;5060256;28;20585;-71
2023/05/25 09:01:01;;;;;;;8.60;3.33;;;;;;;;;;5067146;28;20789;-75
2023/05/25 09:03:29;;;;;;;6.43;2.30;;;;;;;;;;5050577;28;20025;-74
2023/05/25 09:05:56;;;;;;;10.88;2.83;;;;;;;;;;5069325;28;20032;-72
2023/05/25 09:08:22;;;;;;;6.35;2.40;;;;;;;;;;5058251;28;20012;-73
2023/05/25 09:10:49;;;;;;;8.55;2.78;;;;;;;;;;5036584;28;20036;-72
2023/05/25 09:13:16;;;;;;;7.65;2.50;;;;;;;;;;5069807;28;20024;-73
2023/05/25 09:15:43;;;;;;;6.82;2.20;;;;;;;;;;5070105;28;20035;-72
2023/05/25 09:18:09;;;;;;;5.38;2.10;;;;;;;;;;5057764;28;20032;-73
2023/05/25 09:20:35;;;;;;;9.63;3.20;;;;;;;;;;5067064;28;20256;-70
2023/05/25 09:23:02;;;;;;;8.25;2.83;;;;;;;;;;5058308;28;20029;-74
2023/05/25 09:25:30;;;;;;;6.80;2.55;;;;;;;;;;5049490;28;20033;-71
2023/05/25 09:28:00;;;;;;;11.30;2.95;;;;;;;;;;5061665;28;20036;-72
2023/05/25 09:30:31;;;;;;;7.38;2.42;;;;;;;;;;5060754;28;20047;-74
2023/05/25 09:33:09;;;;;;;6.72;2.40;;;;;;;;;;5048983;28;20055;-73
2023/05/25 09:35:35;;;;;;;10.88;3.53;;;;;;;;;;5048314;28;20028;-73
2023/05/25 09:38:01;;;;;;;7.25;2.60;;;;;;;;;;5057490;28;20093;-75
2023/05/25 09:40:27;;;;;;;8.48;2.55;;;;;;;;;;5069003;28;20732;-73
2023/05/25 09:42:53;;;;;;;11.07;3.10;;;;;;;;;;5068474;28;20029;-72
2023/05/25 09:45:19;;;;;;;9.07;2.97;;;;;;;;;;5065587;28;20031;-73
2023/05/25 09:47:46;;;;;;;7.53;2.63;;;;;;;;;;5065116;28;20158;-73
2023/05/25 09:50:12;;;;;;;7.63;2.88;;;;;;;;;;5067812;28;20017;-74
2023/05/25 09:52:38;;;;;;;5.57;2.42;;;;;;;;;;5068688;28;20035;-74
2023/05/25 09:55:09;;;;;;;5.55;1.92;;;;;;;;;;5069513;28;20024;-74
2023/05/25 09:57:35;;;;;;;7.65;2.25;;;;;;;;;;5068823;28;20098;-74
2023/05/25 10:00:04;;;;;;;5.97;2.55;;;;;;;;;;5067916;28;20048;-75
2023/05/25 10:02:30;;;;;;;5.78;2.10;;;;;;;;;;5065019;28;20032;-75
2023/05/25 10:04:56;;;;;;;6.18;2.53;;;;;;;;;;5042971;28;20032;-75
2023/05/25 10:07:22;;;;;;;5.03;2.05;;;;;;;;;;5060682;28;20031;-75
2023/05/25 10:09:52;;;;;;;6.15;2.53;;;;;;;;;;5057898;28;20029;-74
2023/05/25 10:12:19;;;;;;;5.63;2.00;;;;;;;;;;5056840;28;20110;-72
2023/05/25 10:14:46;;;;;;;6.18;1.92;;;;;;;;;;5062281;28;20155;-74
2023/05/25 10:17:12;;;;;;;6.40;2.25;;;;;;;;;;5055903;28;20087;-73
2023/05/25 10:19:46;;;;;;;4.60;1.98;;;;;;;;;;5067711;28;20028;-74
2023/05/25 10:22:21;;;;;;;5.35;2.25;;;;;;;;;;5065189;28;20047;-73
2023/05/25 10:24:55;;;;;;;5.60;2.22;;;;;;;;;;5067082;28;20028;-77
2023/05/25 10:27:22;;;;;;;6.63;2.72;;;;;;;;;;5065514;28;20048;-76
2023/05/25 10:29:49;;;;;;;6.45;2.53;;;;;;;;;;5055816;28;20068;-75
2023/05/25 10:32:18;;;;;;;4.95;2.15;;;;;;;;;;5049363;28;20017;-75
2023/05/25 10:34:44;;;;;;;5.03;2.13;;;;;;;;;;5048430;28;20029;-76
2023/05/25 10:37:11;;;;;;;5.80;2.22;;;;;;;;;;5048540;28;20446;-73
2023/05/25 10:39:38;;;;;;;5.90;2.13;;;;;;;;;;5048651;28;20029;-74
2023/05/25 10:42:04;;;;;;;5.88;2.22;;;;;;;;;;5046524;28;20426;-74
2023/05/25 10:44:31;;;;;;;6.63;1.90;;;;;;;;;;5047760;28;20028;-73
2023/05/25 10:46:59;;;;;;;6.40;2.15;;;;;;;;;;5058497;28;20025;-73
2023/05/25 10:49:34;;;;;;;6.40;2.20;;;;;;;;;;5048793;28;20795;-76
2023/05/25 10:52:02;;;;;;;3.83;1.67;;;;;;;;;;5068328;28;20031;-74
2023/05/25 10:54:32;;;;;;;6.30;2.22;;;;;;;;;;5054958;28;20453;-73
2023/05/25 10:57:09;;;;;;;5.28;2.08;;;;;;;;;;5037899;28;20052;-75
2023/05/25 10:59:35;;;;;;;6.95;2.28;;;;;;;;;;5027806;28;20037;-77
2023/05/25 11:02:05;;;;;;;6.82;2.42;;;;;;;;;;5024604;28;20029;-76
2023/05/25 11:04:36;;;;;;;7.72;3.05;;;;;;;;;;5008677;28;20439;-76
2023/05/25 11:07:02;;;;;;;5.25;2.20;;;;;;;;;;5018582;28;20471;-75
2023/05/25 11:09:31;;;;;;;6.00;1.70;;;;;;;;;;5028597;28;20032;-73
2023/05/25 11:12:02;;;;;;;6.90;2.40;;;;;;;;;;5019163;28;20061;-73
2023/05/25 11:14:31;;;;;;;7.63;2.35;;;;;;;;;;5021535;28;20097;-73
2023/05/25 11:17:17;;;;;;;7.10;2.30;;;;;;;;;;5017757;28;20026;-72
2023/05/25 11:19:43;;;;;;;7.32;1.95;;;;;;;;;;5007568;28;20034;-73
2023/05/25 11:22:14;;;;;;;5.82;2.10;;;;;;;;;;5008471;28;20025;-74
2023/05/25 11:24:43;;;;;;;6.20;2.47;;;;;;;;;;5013684;28;20034;-74
2023/05/25 11:27:10;;;;;;;7.55;1.95;;;;;;;;;;5020647;28;20095;-75
2023/05/25 11:29:36;;;;;;;6.03;2.22;;;;;;;;;;5017054;28;20029;-74
2023/05/25 11:32:03;;;;;;;7.72;1.88;;;;;;;;;;5015045;28;20060;-74
2023/05/25 11:34:30;;;;;;;5.80;2.60;;;;;;;;;;5018814;28;20029;-74
2023/05/25 11:37:00;;;;;;;6.60;2.25;;;;;;;;;;5031017;28;20025;-74
2023/05/25 11:39:26;;;;;;;4.07;2.13;;;;;;;;;;5026399;28;20076;-75
2023/05/25 11:41:56;;;;;;;7.05;2.03;;;;;;;;;;5017769;28;20037;-73
2023/05/25 11:44:29;;;;;;;7.93;2.10;;;;;;;;;;5015127;28;20045;-73
2023/05/25 11:47:00;;;;;;;4.55;2.00;;;;;;;;;;5023974;28;20060;-74
2023/05/25 11:49:26;;;;;;;;;;;;;;;;;;5011351;28;20029;-73
2023/05/25 11:51:53;;;;;;;7.40;2.50;;;;;;;;;;5025034;28;19948;-75
2023/05/25 11:54:23;;;;;;;4.95;1.77;;;;;;;;;;5030096;28;20048;-75
2023/05/25 11:56:49;;;;;;;;;;;;;;;;;;5014440;28;20021;-74
2023/05/25 11:59:15;;;;;;;6.28;2.40;;;;;;;;;;5057532;28;20670;-74
2023/05/25 12:01:41;;;;;;;7.50;2.85;;;;;;;;;;5063300;28;20036;-75
2023/05/25 12:04:11;;;;;;;10.38;2.10;;;;;;;;;;5070265;28;20024;-74
2023/05/25 12:06:37;;;;;;;4.83;2.20;;;;;;;;;;5070975;28;20053;-74
2023/05/25 12:09:07;;;;;;;5.18;2.08;;;;;;;;;;5070329;28;20062;-74
2023/05/25 12:11:35;;;;;;;5.65;2.20;;;;;;;;;;5066956;28;20029;-76
2023/05/25 12:14:03;;;;;;;7.63;2.20;;;22.20;76.30;;;;;;5051759;28;20055;-80
2023/05/25 12:16:30;;;;;;;11.63;3.55;;;22.40;79.80;;;;;;5056822;28;20028;-78
2023/05/25 12:18:56;;;;;;;8.43;3.47;;;22.00;68.90;;;;;;5070851;28;20418;-78
2023/05/25 12:21:22;;;;;;;10.68;2.95;;;21.80;74.20;;;;;;5070810;28;20032;-80
2023/05/25 12:23:49;;;;;;;10.70;3.00;;;21.50;76.30;;;;;;5070790;28;20028;-78
2023/05/25 12:26:17;;;;;;;8.68;3.28;;;21.40;77.70;;;;;;5070397;28;20095;-80
2023/05/25 12:29:05;;;;;;;12.63;4.03;;;21.30;76.40;;;;;;5056934;28;20028;-79
2023/05/25 12:31:37;;;;;;;8.13;3.15;;;21.30;72.30;;;;;;5070404;28;20144;-79
2023/05/25 12:34:18;;;;;;;10.07;3.25;;;21.40;78.30;;;;;;5070475;28;20027;-78
2023/05/25 12:36:52;;;;;;;9.48;2.97;;;21.40;76.60;;;;;;5052823;28;20021;-78
2023/05/25 12:39:29;;;;;;;7.22;2.55;;;21.60;75.10;;;;;;5056161;28;20025;-79
2023/05/25 12:41:57;;;;;;;9.85;3.10;;;21.80;75.70;;;;;;5069038;28;20074;-80
2023/05/25 12:44:27;;;;;;;8.90;3.42;;;21.80;77.30;;;;;;5070971;28;20028;-78
2023/05/25 12:46:54;;;;;;;6.18;2.38;;;21.80;74.50;;;;;;5063049;28;20027;-78
2023/05/25 12:49:31;;;;;;;10.95;3.63;;;22.10;79.80;;;;;;5070635;28;20018;-79
2023/05/25 12:51:59;;;;;;;10.52;3.30;;;22.30;67.00;;;;;;5069831;28;20051;-79
2023/05/25 12:54:42;;;;;;;7.05;2.75;;;22.30;74.70;;;;;;5068738;28;20017;-80
2023/05/25 12:57:13;;;;;;;7.05;2.88;;;22.10;76.30;;;;;;5073317;28;20036;-79
2023/05/25 12:59:41;;;;;;;11.30;4.20;;;22.00;71.30;;;;;;5075096;28;20478;-77
2023/05/25 13:02:07;;;;;;;12.73;3.10;;;21.90;67.40;;;;;;5072324;28;20902;-79
2023/05/25 13:04:34;;;;;;;5.97;2.47;;;21.90;78.10;;;;;;5053235;28;20067;-78
2023/05/25 13:07:00;;;;;;;8.18;2.58;;;21.80;75.50;;;;;;5049844;28;20497;-78
2023/05/25 13:09:26;;;;;;;9.90;3.05;;;21.60;81.50;;;;;;5067020;28;20033;-78
2023/05/25 13:11:55;;;;;;;11.02;4.38;;;21.60;79.70;;;;;;5063445;28;20029;-78
2023/05/25 13:14:25;;;;;;;11.02;3.03;;;21.40;71.90;;;;;;5062703;28;20021;-78
2023/05/25 13:16:51;;;;;;;9.48;3.60;;;21.40;75.00;;;;;;5064256;28;20025;-80
2023/05/25 13:19:19;;;;;;;7.65;3.50;;;21.40;72.30;;;;;;5069735;28;20033;-79
2023/05/25 13:21:46;;;;;;;8.18;2.97;;;21.50;80.00;;;;;;5047395;28;20067;-78
2023/05/25 13:24:12;;;;;;;7.88;3.08;;;21.50;76.30;;;;;;5063989;28;20086;-79
2023/05/25 13:26:37;;;;;;;5.10;2.40;;;21.50;74.80;;;;;;5050971;28;20016;-77
2023/05/25 13:29:03;;;;;;;10.93;3.42;;;21.60;79.20;;;;;;5067410;28;20028;-78
2023/05/25 13:31:28;;;;;;;6.65;2.83;;;21.50;69.70;;;;;;5053786;28;20052;-80
2023/05/25 13:33:55;;;;;;;10.75;3.40;;;21.30;76.00;;;;;;5047699;28;20881;-78
2023/05/25 13:36:21;;;;;;;7.88;2.90;;;21.30;73.70;;;;;;5060633;28;20044;-80
2023/05/25 13:38:47;;;;;;;11.60;4.53;;;21.60;78.90;;;;;;5072421;28;20383;-78
2023/05/25 13:41:12;;;;;;;9.82;2.70;;;21.60;72.00;;;;;;5058112;28;20056;-79
2023/05/25 13:43:38;;;;;;;10.05;3.53;;;21.50;77.90;;;;;;5050254;28;20032;-79
2023/05/25 13:46:04;;;;;;;8.32;3.00;;;21.40;77.70;;;;;;5049896;28;20540;-79
2023/05/25 13:48:29;;;;;;;12.73;3.67;;;21.30;76.50;;;;;;5061805;28;20028;-81
2023/05/25 13:50:55;;;;;;;11.82;3.90;;;21.30;75.90;;;;;;5042072;28;20030;-79
2023/05/25 13:53:21;;;;;;;9.55;3.08;;;21.20;75.50;;;;;;5049555;28;20113;-79
2023/05/25 13:55:47;;;;;;;8.43;2.60;;;21.20;78.80;;;;;;5068919;28;20056;-77
2023/05/25 13:58:13;;;;;;;9.95;3.88;;;21.10;77.90;;;;;;5068755;28;20064;-76
2023/05/25 14:00:38;;;;;;;12.70;3.53;;;21.20;71.40;;;;;;5068460;28;20037;-75
2023/05/25 14:03:05;;;;;;;8.57;3.05;;;21.40;75.10;;;;;;5038325;28;20068;-77
2023/05/25 14:05:31;;;;;;;8.15;3.05;;;21.50;79.30;;;;;;5068156;28;20402;-77
2023/05/25 14:07:59;;;;;;;7.45;3.10;;;21.50;77.30;;;;;;5066154;28;20028;-76
2023/05/25 14:10:25;;;;;;;10.00;3.35;;;21.40;79.10;;;;;;5064520;28;20082;-77
2023/05/25 14:12:50;;;;;;;9.93;3.17;;;21.40;75.20;;;;;;5048289;28;20823;-77
2023/05/25 14:15:16;;;;;;;8.82;2.50;;;21.60;78.90;;;;;;5061757;28;20368;-75
2023/05/25 14:17:42;;;;;;;11.00;3.30;;;21.90;75.80;;;;;;5051427;28;20036;-75